Time;durP1;ratioP1;P1;durP2;ratioP2;P2;SDS_P1;SDS_P2;PMS_P1;PMS_P2;Temp;Humidity;BMP_temperature;BMP_pressure;BME280_temperature;BME280_humidity;BME280_pressure;Samples;Min_cycle;Max_cycle;Signal;HPM_P1;HPM_P2
2023/03/22 00:02:25;;;;;;;11.77;3.73;;;9.80;99.90;;;;;;6209130;23;20603;-84
2023/03/22 00:04:51;;;;;;;3.65;3.08;;;10.00;99.90;;;;;;6208702;23;20153;-84
2023/03/22 00:07:17;;;;;;;5.60;3.97;;;9.90;99.90;;;;;;6207964;23;20153;-84
2023/03/22 00:09:42;;;;;;;4.20;3.53;;;9.90;99.90;;;;;;6209750;23;20202;-85
2023/03/22 00:12:08;;;;;;;7.43;3.67;;;10.00;99.90;;;;;;6239582;23;20151;-84
2023/03/22 00:14:34;;;;;;;5.20;3.43;;;9.80;99.90;;;;;;6209251;23;20160;-83
2023/03/22 00:17:00;;;;;;;5.93;4.20;;;9.70;99.90;;;;;;6236298;23;20745;-84
2023/03/22 00:19:27;;;;;;;4.67;3.47;;;9.60;99.90;;;;;;6207833;23;20172;-84
2023/03/22 00:21:54;;;;;;;5.95;3.40;;;9.40;99.90;;;;;;6206995;23;20303;-83
2023/03/22 00:24:20;;;;;;;12.38;4.30;;;9.20;99.90;;;;;;6206993;23;20160;-85
2023/03/22 00:26:46;;;;;;;6.63;3.60;;;9.20;99.90;;;;;;6234800;23;20160;-84
2023/03/22 00:29:11;;;;;;;5.03;3.67;;;9.10;99.90;;;;;;6210837;23;20233;-84
2023/03/22 00:31:37;;;;;;;5.03;3.13;;;9.00;99.90;;;;;;6208816;23;20510;-83
2023/03/22 00:34:02;;;;;;;4.90;3.27;;;8.90;99.90;;;;;;6230000;23;20390;-82
2023/03/22 00:36:28;;;;;;;5.47;3.37;;;8.80;99.90;;;;;;6244877;23;20288;-83
2023/03/22 00:38:53;;;;;;;6.07;3.73;;;8.70;99.90;;;;;;6237493;23;20156;-84
2023/03/22 00:41:22;;;;;;;6.07;3.30;;;8.60;99.90;;;;;;6238301;23;20149;-83
2023/03/22 00:43:49;;;;;;;9.40;3.60;;;8.50;99.90;;;;;;6238351;22;20149;-84
2023/03/22 00:46:16;;;;;;;7.68;3.33;;;8.50;99.90;;;;;;6239512;23;20387;-84
2023/03/22 00:48:42;;;;;;;5.57;3.33;;;8.40;99.90;;;;;;6236320;23;20156;-84
2023/03/22 00:51:08;;;;;;;7.10;3.33;;;8.40;99.90;;;;;;6238033;23;20504;-84
2023/03/22 00:53:35;;;;;;;8.27;4.47;;;8.30;99.90;;;;;;6243999;23;20163;-84
2023/03/22 00:56:01;;;;;;;5.70;4.13;;;8.20;99.90;;;;;;6236642;23;20180;-83
2023/03/22 00:58:26;;;;;;;5.40;3.10;;;8.10;99.90;;;;;;6234335;23;20218;-83
2023/03/22 01:00:52;;;;;;;5.60;4.10;;;8.10;99.90;;;;;;6237732;23;20657;-85
2023/03/22 01:03:17;;;;;;;4.77;3.20;;;8.00;99.90;;;;;;6237326;23;20162;-83
2023/03/22 01:05:48;;;;;;;4.87;3.67;;;7.90;99.90;;;;;;6234219;23;20158;-84
2023/03/22 01:08:15;;;;;;;4.88;2.97;;;7.90;99.90;;;;;;6233495;23;20251;-84
2023/03/22 01:10:41;;;;;;;6.13;3.80;;;7.90;99.90;;;;;;6235116;23;20920;-84
2023/03/22 01:13:09;;;;;;;4.50;3.00;;;7.90;99.90;;;;;;6235414;23;20198;-83
2023/03/22 01:15:35;;;;;;;6.03;3.58;;;7.80;99.90;;;;;;6231997;23;20156;-84
2023/03/22 01:18:01;;;;;;;6.10;3.40;;;7.80;99.90;;;;;;6239375;23;20454;-85
2023/03/22 01:20:27;;;;;;;5.80;4.43;;;7.80;99.90;;;;;;6233724;23;20411;-83
2023/03/22 01:22:52;;;;;;;4.00;3.30;;;7.70;99.90;;;;;;6236945;23;20152;-83
2023/03/22 01:25:18;;;;;;;4.80;3.20;;;7.70;99.90;;;;;;6235797;23;20367;-85
2023/03/22 01:27:44;;;;;;;5.37;3.17;;;7.60;99.90;;;;;;6234237;23;20159;-84
2023/03/22 01:30:10;;;;;;;6.40;4.13;;;7.60;99.90;;;;;;6237358;23;20229;-84
2023/03/22 01:32:36;;;;;;;8.93;3.58;;;7.50;99.90;;;;;;6233496;23;20474;-83
2023/03/22 01:35:03;;;;;;;4.07;3.40;;;7.50;99.90;;;;;;6236149;23;20658;-84
2023/03/22 01:37:29;;;;;;;4.47;3.20;;;7.50;99.90;;;;;;6233568;23;20172;-84
2023/03/22 01:39:54;;;;;;;3.70;2.83;;;7.50;99.90;;;;;;6234581;23;20543;-83
2023/03/22 01:42:21;;;;;;;6.60;3.80;;;7.50;99.90;;;;;;6206645;23;20149;-84
2023/03/22 01:45:11;;;;;;;8.38;4.22;;;7.50;99.90;;;;;;6207513;23;20153;-84
2023/03/22 01:47:38;;;;;;;6.18;3.58;;;7.50;99.90;;;;;;6233985;23;20148;-84
2023/03/22 01:50:05;;;;;;;9.15;3.60;;;7.50;99.90;;;;;;6207305;23;20172;-82
2023/03/22 01:52:30;;;;;;;6.88;3.60;;;7.40;99.90;;;;;;6210602;23;20156;-84
2023/03/22 01:54:56;;;;;;;4.47;2.97;;;7.40;99.90;;;;;;6239105;23;20653;-83
2023/03/22 01:57:22;;;;;;;7.80;4.17;;;7.50;99.90;;;;;;6213613;23;20183;-84
2023/03/22 01:59:49;;;;;;;7.80;3.50;;;7.50;99.90;;;;;;6209417;23;20176;-84
2023/03/22 02:02:17;;;;;;;7.70;3.88;;;7.60;99.90;;;;;;6253440;23;20145;-84
2023/03/22 02:04:49;;;;;;;6.13;3.55;;;7.60;99.90;;;;;;6249022;23;20140;-84
2023/03/22 02:07:17;;;;;;;6.30;3.70;;;7.60;99.90;;;;;;6214957;23;20225;-84
2023/03/22 02:09:42;;;;;;;5.28;4.03;;;7.60;99.90;;;;;;6213481;23;20232;-83
2023/03/22 02:12:17;;;;;;;4.53;3.17;;;7.50;99.90;;;;;;6239301;23;20180;-84
2023/03/22 02:14:45;;;;;;;5.03;2.75;;;7.40;99.90;;;;;;6214561;23;20179;-84
2023/03/22 02:17:18;;;;;;;6.75;3.25;;;7.40;99.90;;;;;;6211767;23;20172;-84
2023/03/22 02:20:12;;;;;;;6.15;4.00;;;7.40;99.90;;;;;;6241185;23;20226;-84
2023/03/22 02:23:09;;;;;;;7.13;3.72;;;7.40;99.90;;;;;;6237540;23;20509;-83
2023/03/22 02:25:53;;;;;;;8.25;3.58;;;7.40;99.90;;;;;;6209217;23;20149;-82
2023/03/22 02:28:21;;;;;;;5.78;3.50;;;7.50;99.90;;;;;;6209224;23;20957;-84
2023/03/22 02:31:09;;;;;;;7.45;3.50;;;7.60;99.90;;;;;;6208398;23;20172;-81
2023/03/22 02:33:53;;;;;;;6.45;3.20;;;7.60;99.90;;;;;;6219358;23;20179;-83
2023/03/22 02:36:43;;;;;;;5.25;4.13;;;7.70;99.90;;;;;;6233979;23;20164;-83
2023/03/22 02:39:39;;;;;;;4.43;3.10;;;7.70;99.90;;;;;;6233278;23;20173;-82
2023/03/22 02:42:31;;;;;;;4.53;3.35;;;7.70;99.90;;;;;;6238944;23;20161;-82
2023/03/22 02:45:07;;;;;;;5.40;3.83;;;7.80;99.90;;;;;;6232993;23;20208;-82
2023/03/22 02:47:53;;;;;;;3.70;2.63;;;7.80;99.90;;;;;;6236622;23;20140;-84
2023/03/22 02:50:24;;;;;;;13.07;3.55;;;7.80;99.90;;;;;;6234525;23;20176;-83
2023/03/22 02:53:02;;;;;;;7.68;2.97;;;7.80;99.90;;;;;;6234752;23;20169;-82
2023/03/22 02:56:03;;;;;;;4.85;3.05;;;7.80;99.90;;;;;;6233911;23;20228;-83
2023/03/22 02:58:44;;;;;;;4.25;3.35;;;7.90;99.90;;;;;;6234043;23;20144;-82
2023/03/22 03:01:16;;;;;;;7.25;4.05;;;7.80;99.90;;;;;;6237052;23;20567;-83
2023/03/22 03:03:46;;;;;;;7.90;3.40;;;7.70;99.90;;;;;;6236944;23;20145;-83
2023/03/22 03:06:16;;;;;;;8.68;3.85;;;7.70;99.90;;;;;;6234510;23;20481;-83
2023/03/22 03:08:45;;;;;;;2.90;2.60;;;7.70;99.90;;;;;;6234569;23;20246;-82
2023/03/22 03:11:11;;;;;;;5.88;2.75;;;7.60;99.90;;;;;;6234761;23;20255;-83
2023/03/22 03:13:36;;;;;;;5.90;2.60;;;7.70;99.90;;;;;;6236879;23;20181;-83
2023/03/22 03:16:06;;;;;;;4.63;3.37;;;7.70;99.90;;;;;;6245704;23;20554;-83
2023/03/22 03:18:59;;;;;;;4.40;4.00;;;7.70;99.90;;;;;;6238528;23;20156;-83
2023/03/22 03:21:44;;;;;;;6.05;3.83;;;7.70;99.90;;;;;;6237916;23;20145;-83
2023/03/22 03:24:15;;;;;;;4.35;2.30;;;7.70;99.90;;;;;;6235229;23;20231;-83
2023/03/22 03:26:49;;;;;;;4.10;2.80;;;7.60;99.90;;;;;;6240803;23;20152;-83
2023/03/22 03:29:25;;;;;;;4.65;3.03;;;7.60;99.90;;;;;;6233785;23;20214;-82
2023/03/22 03:32:08;;;;;;;6.40;2.88;;;7.60;99.90;;;;;;6237320;23;20198;-83
2023/03/22 03:34:53;;;;;;;4.53;2.60;;;7.60;99.90;;;;;;6233519;23;20270;-84
2023/03/22 03:37:38;;;;;;;3.47;2.60;;;7.70;99.90;;;;;;6234909;23;20191;-82
2023/03/22 03:40:10;;;;;;;5.35;2.40;;;7.80;99.90;;;;;;6233834;23;20176;-83
2023/03/22 03:42:44;;;;;;;4.63;2.47;;;7.80;99.90;;;;;;6234721;23;20144;-82
2023/03/22 03:45:11;;;;;;;4.35;2.65;;;7.80;99.90;;;;;;6250334;23;20137;-84
2023/03/22 03:47:37;;;;;;;4.13;2.40;;;7.80;99.90;;;;;;6240296;23;20607;-83
2023/03/22 03:50:05;;;;;;;3.05;2.55;;;7.90;99.90;;;;;;6238788;23;20172;-83
2023/03/22 03:52:30;;;;;;;5.40;2.75;;;7.90;99.90;;;;;;6241327;23;20179;-83
2023/03/22 03:54:57;;;;;;;3.43;2.67;;;7.90;99.90;;;;;;6239281;23;20191;-83
2023/03/22 03:57:22;;;;;;;6.47;1.98;;;7.80;99.90;;;;;;6240138;23;20465;-82
2023/03/22 03:59:49;;;;;;;4.63;2.40;;;7.70;99.90;;;;;;6236022;23;20563;-82
2023/03/22 04:02:15;;;;;;;4.32;2.50;;;7.60;99.90;;;;;;6239050;23;20141;-82
2023/03/22 04:04:41;;;;;;;6.22;2.30;;;7.60;99.90;;;;;;6241326;23;20611;-82
2023/03/22 04:07:06;;;;;;;2.70;2.23;;;7.50;99.90;;;;;;6237398;23;20163;-84
2023/03/22 04:09:34;;;;;;;4.00;2.47;;;7.50;99.90;;;;;;6233360;23;20615;-82
2023/03/22 04:12:00;;;;;;;4.78;2.10;;;7.50;99.90;;;;;;6236425;23;20282;-83
2023/03/22 04:14:26;;;;;;;6.70;1.70;;;7.50;99.90;;;;;;6231714;23;20188;-82
2023/03/22 04:16:52;;;;;;;5.30;2.30;;;7.60;99.90;;;;;;6237051;23;20171;-83
2023/03/22 04:19:18;;;;;;;3.00;2.47;;;7.60;99.90;;;;;;6235255;23;20263;-84
2023/03/22 04:21:44;;;;;;;7.05;2.55;;;7.60;99.90;;;;;;6232853;23;20153;-83
2023/03/22 04:24:11;;;;;;;6.43;2.70;;;7.50;99.90;;;;;;6234035;23;20202;-82
2023/03/22 04:26:37;;;;;;;3.63;2.13;;;7.50;99.90;;;;;;6234883;23;20379;-82
2023/03/22 04:29:03;;;;;;;2.70;2.10;;;7.50;99.90;;;;;;6238550;23;20198;-83
2023/03/22 04:31:30;;;;;;;6.17;3.47;;;7.50;99.90;;;;;;6244789;23;20710;-82
2023/03/22 04:33:55;;;;;;;5.95;2.30;;;7.60;99.90;;;;;;6237837;23;20391;-82
2023/03/22 04:36:22;;;;;;;4.00;2.43;;;7.60;99.90;;;;;;6210458;23;20179;-81
2023/03/22 04:38:48;;;;;;;4.20;2.50;;;7.60;99.90;;;;;;6210460;23;20724;-83
2023/03/22 04:41:13;;;;;;;3.90;3.13;;;7.70;99.90;;;;;;6238504;23;20145;-82
2023/03/22 04:43:39;;;;;;;5.20;2.60;;;7.70;99.90;;;;;;6212470;23;20375;-83
2023/03/22 04:46:08;;;;;;;2.43;2.23;;;7.80;99.90;;;;;;6203977;23;20502;-83
2023/03/22 04:48:39;;;;;;;4.00;2.33;;;7.70;99.90;;;;;;6209259;23;20162;-83
2023/03/22 04:51:09;;;;;;;5.03;2.42;;;7.70;99.90;;;;;;6240781;23;20145;-83
2023/03/22 04:53:37;;;;;;;4.68;2.75;;;7.70;99.90;;;;;;6207928;23;20168;-82
2023/03/22 04:56:09;;;;;;;3.55;2.40;;;7.80;99.90;;;;;;6234917;23;20164;-83
2023/03/22 04:58:37;;;;;;;3.78;2.25;;;7.80;99.90;;;;;;6237491;23;20129;-83
2023/03/22 05:01:03;;;;;;;4.70;2.70;;;7.70;99.90;;;;;;6209268;23;20991;-84
2023/03/22 05:03:28;;;;;;;2.80;2.07;;;7.70;99.90;;;;;;6211800;23;20199;-82
2023/03/22 05:06:00;;;;;;;3.93;2.43;;;7.60;99.90;;;;;;6207214;23;20148;-83
2023/03/22 05:08:27;;;;;;;5.60;2.20;;;7.60;99.90;;;;;;6233916;23;20160;-82
2023/03/22 05:10:54;;;;;;;2.40;1.85;;;7.50;99.90;;;;;;6229926;23;20586;-82
2023/03/22 05:13:21;;;;;;;4.80;2.88;;;7.50;99.90;;;;;;6208518;23;20223;-81
2023/03/22 05:15:47;;;;;;;4.53;2.95;;;7.50;99.90;;;;;;6235774;23;20506;-82
2023/03/22 05:18:21;;;;;;;3.90;2.85;;;7.60;99.90;;;;;;6208556;23;20383;-84
2023/03/22 05:20:47;;;;;;;2.95;2.30;;;7.60;99.90;;;;;;6214404;23;20223;-82
2023/03/22 05:23:13;;;;;;;3.40;2.35;;;7.70;99.90;;;;;;6212036;23;20148;-80
2023/03/22 05:25:39;;;;;;;6.78;2.13;;;7.70;99.90;;;;;;6216151;23;20141;-82
2023/03/22 05:28:05;;;;;;;2.93;2.13;;;7.70;99.90;;;;;;6235529;23;20145;-82
2023/03/22 05:30:31;;;;;;;4.15;2.35;;;7.60;99.90;;;;;;6210067;23;20499;-81
2023/03/22 05:33:02;;;;;;;4.47;2.20;;;7.70;99.90;;;;;;6216171;23;20168;-82
2023/03/22 05:35:32;;;;;;;3.95;3.28;;;7.80;99.90;;;;;;6233519;23;20628;-82
2023/03/22 05:37:58;;;;;;;10.32;2.70;;;7.90;99.90;;;;;;6236458;23;20152;-81
2023/03/22 05:40:24;;;;;;;8.90;2.87;;;8.00;99.90;;;;;;6249953;23;20184;-81
2023/03/22 05:42:50;;;;;;;5.55;2.72;;;8.00;99.90;;;;;;6236825;23;20239;-82
2023/03/22 05:45:17;;;;;;;6.78;2.28;;;8.00;99.90;;;;;;6235665;23;20208;-82
2023/03/22 05:47:43;;;;;;;3.78;3.17;;;8.10;99.90;;;;;;6234982;23;20627;-83
2023/03/22 05:50:11;;;;;;;12.13;3.10;;;8.20;99.90;;;;;;6238680;23;20211;-83
2023/03/22 05:52:36;;;;;;;3.92;2.25;;;8.30;99.90;;;;;;6241485;23;20195;-81
2023/03/22 05:55:02;;;;;;;3.03;2.07;;;8.50;99.90;;;;;;6246793;23;20604;-83
2023/03/22 05:57:28;;;;;;;6.97;2.22;;;8.60;99.90;;;;;;6238239;23;20180;-83
2023/03/22 05:59:57;;;;;;;5.32;2.80;;;8.90;99.90;;;;;;6242660;23;20168;-82
2023/03/22 06:02:23;;;;;;;3.25;2.83;;;9.50;99.90;;;;;;6239250;23;20145;-81
2023/03/22 06:04:50;;;;;;;10.38;3.13;;;9.90;99.90;;;;;;6233537;23;20184;-82
2023/03/22 06:07:17;;;;;;;2.42;2.03;;;10.40;99.90;;;;;;6238133;23;20157;-81
2023/03/22 06:09:42;;;;;;;3.80;2.30;;;11.20;99.90;;;;;;6242188;23;20183;-81
2023/03/22 06:12:08;;;;;;;5.60;2.33;;;11.90;99.90;;;;;;6237968;23;20156;-82
2023/03/22 06:14:34;;;;;;;2.17;1.97;;;13.10;99.90;;;;;;6238842;23;20183;-82
2023/03/22 06:17:00;;;;;;;3.50;1.90;;;13.50;99.90;;;;;;6241270;23;20450;-81
2023/03/22 06:19:25;;;;;;;3.03;2.13;;;14.10;99.90;;;;;;6240357;23;20183;-82
2023/03/22 06:21:53;;;;;;;5.77;2.83;;;15.00;99.90;;;;;;6235089;23;20152;-81
2023/03/22 06:24:19;;;;;;;5.30;2.63;;;16.20;99.90;;;;;;6232035;23;20152;-80
2023/03/22 06:26:44;;;;;;;4.13;2.87;;;17.00;99.90;;;;;;6232388;23;20375;-82
2023/03/22 06:29:10;;;;;;;6.47;2.50;;;17.10;99.90;;;;;;6231363;23;20172;-81
2023/03/22 06:31:36;;;;;;;3.03;2.13;;;18.40;99.90;;;;;;6229962;23;20196;-80
2023/03/22 06:34:02;;;;;;;3.43;2.50;;;17.90;99.90;;;;;;6231237;23;20168;-81
2023/03/22 06:36:28;;;;;;;4.10;2.57;;;17.50;99.90;;;;;;6235295;23;20239;-82
2023/03/22 06:38:54;;;;;;;3.50;2.50;;;17.50;99.90;;;;;;6234299;23;20352;-83
2023/03/22 06:41:19;;;;;;;6.00;2.57;;;17.90;99.90;;;;;;6227227;23;20813;-82
2023/03/22 06:43:45;;;;;;;3.63;2.20;;;17.30;99.90;;;;;;6231084;23;20496;-84
2023/03/22 06:46:10;;;;;;;2.77;1.97;;;17.50;99.90;;;;;;6235652;23;20231;-86
2023/03/22 06:48:36;;;;;;;5.50;2.20;;;18.40;99.90;;;;;;6251168;23;20512;-88
2023/03/22 06:51:01;;;;;;;4.13;2.17;;;18.30;99.90;;;;;;6240817;23;20172;-85
2023/03/22 06:53:27;;;;;;;5.43;2.13;;;18.60;99.60;;;;;;6235796;23;20148;-84
2023/03/22 06:55:52;;;;;;;2.70;2.10;;;18.20;99.50;;;;;;6234723;23;20172;-85
2023/03/22 06:58:18;;;;;;;3.57;2.40;;;17.60;99.20;;;;;;6231848;23;20487;-85
2023/03/22 07:00:44;;;;;;;4.27;2.63;;;17.50;99.90;;;;;;6237499;23;20168;-84
2023/03/22 07:03:09;;;;;;;5.23;2.10;;;17.80;99.90;;;;;;6235855;23;20144;-84
2023/03/22 07:05:35;;;;;;;2.63;2.20;;;18.80;99.80;;;;;;6243404;22;20168;-85
2023/03/22 07:08:01;;;;;;;4.00;1.90;;;18.50;98.40;;;;;;6238502;23;20176;-84
2023/03/22 07:10:26;;;;;;;5.70;3.23;;;18.20;98.70;;;;;;6236433;23;20176;-83
2023/03/22 07:12:52;;;;;;;3.00;2.07;;;18.50;98.10;;;;;;6233682;23;20164;-85
2023/03/22 07:15:18;;;;;;;3.33;2.17;;;18.80;98.10;;;;;;6234616;23;20153;-85
2023/03/22 07:17:44;;;;;;;3.63;2.33;;;19.00;97.30;;;;;;6245557;22;20171;-84
2023/03/22 07:20:10;;;;;;;3.97;2.13;;;18.60;97.30;;;;;;6238700;23;20409;-85
2023/03/22 07:22:35;;;;;;;6.00;2.57;;;19.00;96.70;;;;;;6234693;23;20171;-86
2023/03/22 07:25:01;;;;;;;3.93;2.13;;;19.20;96.20;;;;;;6231389;23;20661;-84
2023/03/22 07:27:26;;;;;;;4.63;1.80;;;19.60;96.00;;;;;;6235346;23;20144;-83
2023/03/22 07:29:53;;;;;;;2.60;2.00;;;19.70;95.40;;;;;;6233970;23;20243;-84
2023/03/22 07:32:18;;;;;;;4.10;1.73;;;18.90;94.80;;;;;;6222937;23;20498;-85
2023/03/22 07:34:44;;;;;;;5.73;2.10;;;18.60;95.40;;;;;;6232272;23;20373;-85
2023/03/22 07:37:10;;;;;;;2.57;1.50;;;18.80;96.10;;;;;;6206137;23;20991;-85
2023/03/22 07:39:35;;;;;;;3.07;1.90;;;19.90;95.60;;;;;;6236072;23;20195;-84
2023/03/22 07:42:01;;;;;;;5.80;1.90;;;20.20;94.80;;;;;;6208356;23;20227;-84
2023/03/22 07:44:27;;;;;;;2.30;1.57;;;19.50;94.10;;;;;;6208035;23;20246;-83
2023/03/22 07:46:52;;;;;;;5.87;1.90;;;20.10;93.50;;;;;;6234203;23;20422;-85
2023/03/22 07:49:18;;;;;;;3.23;2.10;;;19.50;94.40;;;;;;6232717;23;20637;-83
2023/03/22 07:51:44;;;;;;;3.50;2.03;;;19.70;93.40;;;;;;6206310;23;20179;-83
2023/03/22 07:54:09;;;;;;;2.60;2.13;;;19.50;94.00;;;;;;6206688;23;20586;-83
2023/03/22 07:56:35;;;;;;;5.30;2.30;;;19.70;93.50;;;;;;6236801;23;20465;-83
2023/03/22 07:59:01;;;;;;;2.47;2.10;;;20.30;94.30;;;;;;6211543;23;20218;-84
2023/03/22 08:01:26;;;;;;;2.77;1.70;;;20.10;93.30;;;;;;6238446;23;20227;-83
2023/03/22 08:03:53;;;;;;;5.17;2.53;;;20.10;92.00;;;;;;6209827;23;20156;-83
2023/03/22 08:06:20;;;;;;;2.73;2.00;;;19.40;92.70;;;;;;6235586;23;20144;-84
2023/03/22 08:08:47;;;;;;;3.17;1.57;;;18.90;94.20;;;;;;6206106;23;20838;-85
2023/03/22 08:11:13;;;;;;;4.53;2.27;;;19.20;93.20;;;;;;6217803;23;20916;-82
2023/03/22 08:13:38;;;;;;;3.30;1.67;;;19.20;94.20;;;;;;6241230;23;20391;-83
2023/03/22 08:16:05;;;;;;;5.60;1.80;;;19.70;93.90;;;;;;6236873;23;20411;-84
2023/03/22 08:18:31;;;;;;;2.90;1.53;;;19.50;93.30;;;;;;6215876;23;20387;-85
2023/03/22 08:20:58;;;;;;;2.60;1.20;;;19.80;92.60;;;;;;6209213;23;20909;-84
2023/03/22 08:23:25;;;;;;;1.87;1.47;;;20.10;92.70;;;;;;6206651;23;21163;-83
2023/03/22 08:25:51;;;;;;;2.00;1.77;;;20.60;91.80;;;;;;6209846;23;20568;-82
2023/03/22 08:28:17;;;;;;;3.37;1.87;;;19.80;91.40;;;;;;6236083;23;20810;-83
2023/03/22 08:30:47;;;;;;;2.90;1.70;;;19.50;92.50;;;;;;6234436;23;20164;-83
2023/03/22 08:33:13;;;;;;;6.13;1.70;;;19.40;92.20;;;;;;6226828;22;20407;-83
2023/03/22 08:35:39;;;;;;;3.30;1.30;;;19.00;92.90;;;;;;6238090;23;20387;-83
2023/03/22 08:38:05;;;;;;;4.97;1.87;;;18.70;94.10;;;;;;6238406;23;20693;-81
2023/03/22 08:40:31;;;;;;;3.30;2.07;;;18.30;94.30;;;;;;6240047;23;20627;-83
2023/03/22 08:42:57;;;;;;;3.90;1.83;;;18.40;94.90;;;;;;6233767;23;20160;-84
2023/03/22 08:45:23;;;;;;;3.20;1.60;;;18.10;95.20;;;;;;6234069;23;20375;-84
2023/03/22 08:47:48;;;;;;;4.80;2.00;;;17.60;95.80;;;;;;6236077;23;20375;-83
2023/03/22 08:50:14;;;;;;;3.63;1.80;;;17.80;95.70;;;;;;6235250;23;20472;-83
2023/03/22 08:52:40;;;;;;;2.30;1.73;;;17.70;96.30;;;;;;6232003;23;20247;-81
2023/03/22 08:55:07;;;;;;;2.00;1.90;;;17.80;95.90;;;;;;6235549;23;20174;-83
2023/03/22 08:57:33;;;;;;;3.50;1.73;;;17.60;96.60;;;;;;6232957;23;20184;-84
2023/03/22 08:59:59;;;;;;;4.20;2.00;;;17.70;97.20;;;;;;6232342;23;20468;-83
2023/03/22 09:02:25;;;;;;;2.37;1.43;;;19.50;97.50;;;;;;6232009;23;20379;-83
2023/03/22 09:04:51;;;;;;;1.80;1.13;;;20.50;92.90;;;;;;6232185;23;20447;-83
2023/03/22 09:07:17;;;;;;;1.33;0.87;;;20.60;93.20;;;;;;6230813;23;20383;-83
2023/03/22 09:09:43;;;;;;;2.37;1.00;;;20.20;91.30;;;;;;6232549;23;20188;-82
2023/03/22 09:12:09;;;;;;;3.60;2.00;;;20.10;93.40;;;;;;6233324;23;20382;-83
2023/03/22 09:14:34;;;;;;;2.17;1.40;;;21.20;93.00;;;;;;6232601;23;20156;-82
2023/03/22 09:17:00;;;;;;;3.17;1.50;;;23.20;89.90;;;;;;6233001;23;20234;-84
2023/03/22 09:19:26;;;;;;;3.00;1.60;;;23.10;86.90;;;;;;6234620;23;20505;-82
2023/03/22 09:21:52;;;;;;;1.93;1.00;;;22.50;85.20;;;;;;6229840;23;20375;-83
2023/03/22 09:24:18;;;;;;;2.50;1.30;;;22.40;86.80;;;;;;6232648;23;20759;-83
2023/03/22 09:26:44;;;;;;;3.10;1.20;;;20.80;85.30;;;;;;6234352;23;20187;-84
2023/03/22 09:29:10;;;;;;;1.43;1.10;;;18.50;90.00;;;;;;6245069;23;20422;-83
2023/03/22 09:31:35;;;;;;;1.33;1.23;;;18.10;92.90;;;;;;6234910;23;20376;-82
2023/03/22 09:34:01;;;;;;;5.70;1.43;;;18.60;94.10;;;;;;6239341;23;20171;-83
2023/03/22 09:36:26;;;;;;;3.50;0.70;;;19.00;91.70;;;;;;6231920;23;20188;-82
2023/03/22 09:38:52;;;;;;;4.00;1.17;;;18.80;91.50;;;;;;6233583;23;20137;-83
2023/03/22 09:41:35;;;;;;;1.57;0.90;;;18.40;92.60;;;;;;6233154;23;20551;-83
2023/03/22 09:44:05;;;;;;;2.20;1.03;;;18.70;93.10;;;;;;6231243;23;20639;-83
2023/03/22 09:46:44;;;;;;;1.67;1.20;;;19.30;94.20;;;;;;6229211;23;20407;-85
2023/03/22 09:49:16;;;;;;;1.40;1.30;;;18.70;92.50;;;;;;6250543;22;20421;-82
2023/03/22 09:51:51;;;;;;;2.87;1.00;;;18.90;92.80;;;;;;6237931;23;20356;-84
2023/03/22 09:54:20;;;;;;;2.30;1.10;;;19.60;92.30;;;;;;6229885;23;20350;-84
2023/03/22 09:57:17;;;;;;;3.10;1.17;;;19.70;90.40;;;;;;6232903;23;21258;-83
2023/03/22 10:00:15;;;;;;;2.50;1.00;;;18.20;93.00;;;;;;6227653;23;20402;-82
2023/03/22 10:03:07;;;;;;;2.00;1.00;;;18.40;94.30;;;;;;6231774;23;20432;-82
2023/03/22 10:05:43;;;;;;;2.87;0.70;;;18.40;93.50;;;;;;6227558;23;20384;-83
2023/03/22 10:08:34;;;;;;;1.40;1.20;;;19.50;94.20;;;;;;6230986;23;20375;-82
2023/03/22 10:11:00;;;;;;;0.57;0.57;;;19.60;91.90;;;;;;6231978;23;20387;-82
2023/03/22 10:13:28;;;;;;;4.50;1.10;;;20.20;92.90;;;;;;6234493;23;20687;-82
2023/03/22 10:16:00;;;;;;;0.90;0.60;;;20.30;93.30;;;;;;6236931;23;20368;-82
2023/03/22 10:18:29;;;;;;;1.20;0.70;;;19.60;91.80;;;;;;6233008;23;20395;-83
2023/03/22 10:21:00;;;;;;;1.27;0.70;;;19.30;93.30;;;;;;6233731;23;20494;-82
2023/03/22 10:23:46;;;;;;;1.40;0.80;;;19.10;95.30;;;;;;6234226;23;20379;-83
2023/03/22 10:26:28;;;;;;;1.37;0.60;;;18.10;93.70;;;;;;6202802;23;20383;-83
2023/03/22 10:29:11;;;;;;;12.43;1.30;;;17.80;95.10;;;;;;6235074;23;20496;-82
2023/03/22 10:31:40;;;;;;;0.83;0.67;;;18.00;94.90;;;;;;6238430;23;20444;-82
2023/03/22 10:34:20;;;;;;;6.23;1.70;;;17.50;95.40;;;;;;6241762;23;21012;-83
2023/03/22 10:36:49;;;;;;;5.20;0.70;;;17.50;95.70;;;;;;6213180;23;20418;-83
2023/03/22 10:39:34;;;;;;;1.20;0.50;;;17.80;95.60;;;;;;6241526;23;20392;-83
2023/03/22 10:42:03;;;;;;;1.40;1.30;;;17.50;94.30;;;;;;6222843;23;20402;-82
2023/03/22 10:44:33;;;;;;;8.50;0.90;;;17.90;93.30;;;;;;6241487;23;20723;-83
2023/03/22 10:47:06;;;;;;;3.37;1.90;;;17.70;91.90;;;;;;6241324;23;20356;-82
2023/03/22 10:49:36;;;;;;;1.50;0.73;;;17.50;92.80;;;;;;6242607;23;20391;-82
2023/03/22 10:52:17;;;;;;;1.00;0.70;;;17.90;92.80;;;;;;6240820;23;21170;-83
2023/03/22 10:54:43;;;;;;;7.67;1.33;;;18.10;91.30;;;;;;6237903;23;20359;-83
2023/03/22 10:57:08;;;;;;;0.70;0.63;;;18.20;92.10;;;;;;6245644;23;20788;-81
2023/03/22 10:59:51;;;;;;;0.70;0.50;;;18.30;91.40;;;;;;6248318;23;20395;-83
2023/03/22 11:02:18;;;;;;;0.80;0.60;;;18.30;91.00;;;;;;6239276;23;20247;-83
2023/03/22 11:04:53;;;;;;;2.80;0.67;;;17.90;91.20;;;;;;6214076;23;20375;-84
2023/03/22 11:07:26;;;;;;;1.27;0.60;;;17.50;92.40;;;;;;6235324;23;20486;-82
2023/03/22 11:09:58;;;;;;;1.00;0.87;;;17.60;93.50;;;;;;6214212;23;20402;-83
2023/03/22 11:12:24;;;;;;;1.43;0.70;;;17.80;93.20;;;;;;6214788;23;20519;-83
2023/03/22 11:14:50;;;;;;;1.03;0.90;;;17.60;92.80;;;;;;6213605;23;20407;-84
2023/03/22 11:17:22;;;;;;;1.37;0.73;;;18.30;93.50;;;;;;6222118;23;20492;-83
2023/03/22 11:19:52;;;;;;;2.40;0.90;;;18.60;91.10;;;;;;6240365;23;20387;-83
2023/03/22 11:22:32;;;;;;;1.43;0.90;;;18.70;91.80;;;;;;6214562;23;20402;-82
2023/03/22 11:24:58;;;;;;;2.20;0.60;;;18.80;90.80;;;;;;6213908;23;20474;-83
2023/03/22 11:27:30;;;;;;;2.70;1.00;;;18.80;90.80;;;;;;6215082;23;20390;-83
2023/03/22 11:30:27;;;;;;;1.07;0.90;;;18.20;91.30;;;;;;6214509;23;20866;-83
2023/03/22 11:33:15;;;;;;;1.27;0.70;;;18.50;91.30;;;;;;6211844;23;20967;-84
2023/03/22 11:35:44;;;;;;;0.77;0.60;;;18.30;88.50;;;;;;6240852;23;20386;-82
2023/03/22 11:38:24;;;;;;;0.93;0.90;;;18.60;90.60;;;;;;6235826;23;20388;-83
2023/03/22 11:40:56;;;;;;;4.50;1.93;;;18.80;89.40;;;;;;6242350;23;20434;-83
2023/03/22 11:43:25;;;;;;;5.20;2.07;;;19.60;90.70;;;;;;6241854;23;20818;-82
2023/03/22 11:45:55;;;;;;;4.73;0.70;;;20.00;89.20;;;;;;6241490;23;20370;-83
2023/03/22 11:48:24;;;;;;;44.13;5.90;;;19.20;83.20;;;;;;6238910;23;20379;-82
2023/03/22 11:50:53;;;;;;;185.57;21.37;;;18.70;81.40;;;;;;6240908;23;20399;-83
2023/03/22 11:53:25;;;;;;;61.83;9.03;;;18.80;81.50;;;;;;6233202;23;20383;-84
2023/03/22 11:55:55;;;;;;;56.10;7.80;;;19.10;83.40;;;;;;6242975;23;20772;-82
2023/03/22 11:58:27;;;;;;;21.80;3.40;;;19.10;80.10;;;;;;6246974;23;20361;-82
2023/03/22 12:00:57;;;;;;;71.47;7.37;;;19.00;81.20;;;;;;6242835;22;20616;-83
2023/03/22 12:03:29;;;;;;;12.97;1.60;;;19.00;82.30;;;;;;6242994;23;20435;-84
2023/03/22 12:05:55;;;;;;;25.57;4.63;;;18.90;81.90;;;;;;6236773;23;20414;-83
2023/03/22 12:08:41;;;;;;;5.10;1.50;;;18.40;83.40;;;;;;6237757;23;20375;-84
2023/03/22 12:11:13;;;;;;;1.77;1.00;;;18.10;82.60;;;;;;6236367;23;20418;-82
2023/03/22 12:13:41;;;;;;;1.00;0.80;;;18.20;84.80;;;;;;6234967;23;20376;-82
2023/03/22 12:16:11;;;;;;;1.60;0.87;;;18.40;84.70;;;;;;6234837;23;20408;-81
2023/03/22 12:19:20;;;;;;;0.90;0.60;;;18.70;85.30;;;;;;6235977;23;20376;-81
2023/03/22 12:21:48;;;;;;;1.50;0.83;;;18.70;84.00;;;;;;6245375;23;20359;-84
2023/03/22 12:24:34;;;;;;;2.37;1.47;;;19.20;84.60;;;;;;6244426;23;20395;-82
2023/03/22 12:27:12;;;;;;;2.03;0.80;;;19.50;83.70;;;;;;6240641;22;20876;-84
2023/03/22 12:29:43;;;;;;;5.17;1.73;;;19.40;84.00;;;;;;6239378;23;20414;-83
2023/03/22 12:32:17;;;;;;;6.67;1.50;;;19.60;82.70;;;;;;6245363;23;20434;-83
2023/03/22 12:34:47;;;;;;;1.20;1.00;;;19.70;84.00;;;;;;6217664;23;20387;-82
2023/03/22 12:37:21;;;;;;;1.70;1.07;;;19.50;79.10;;;;;;6244955;23;20402;-84
2023/03/22 12:39:51;;;;;;;1.63;0.90;;;19.50;84.40;;;;;;6243298;23;20396;-84
2023/03/22 12:42:23;;;;;;;1.10;0.70;;;19.00;82.30;;;;;;6243375;23;20360;-83
2023/03/22 12:44:50;;;;;;;4.73;1.07;;;19.40;84.20;;;;;;6214507;23;20375;-84
2023/03/22 12:47:23;;;;;;;8.00;7.23;;;19.10;83.30;;;;;;6241189;23;20405;-83
2023/03/22 12:50:04;;;;;;;3.07;0.80;;;19.00;86.10;;;;;;6241377;23;20430;-84
2023/03/22 12:52:37;;;;;;;2.30;1.10;;;18.60;82.90;;;;;;6212498;23;20379;-82
2023/03/22 12:55:04;;;;;;;2.73;0.87;;;18.20;82.40;;;;;;6212564;23;20484;-84
2023/03/22 12:57:29;;;;;;;1.73;0.93;;;18.10;85.10;;;;;;6208376;23;20423;-83
2023/03/22 12:59:59;;;;;;;5.00;1.37;;;18.20;83.50;;;;;;6206122;23;20403;-81
2023/03/22 13:02:30;;;;;;;7.30;1.97;;;18.20;83.30;;;;;;6233865;23;21041;-82
2023/03/22 13:04:58;;;;;;;1.50;0.80;;;18.10;82.00;;;;;;6207689;23;20375;-82